Time;durP1;ratioP1;P1;durP2;ratioP2;P2;SDS_P1;SDS_P2;PMS_P1;PMS_P2;Temp;Humidity;BMP_temperature;BMP_pressure;BME280_temperature;BME280_humidity;BME280_pressure;Samples;Min_cycle;Max_cycle;Signal;HPM_P1;HPM_P2
2023/05/02 00:00:14;;;;;;;6.23;5.67;;;11.90;99.90;;;;;;4975728;28;20212;-70
2023/05/02 00:02:40;;;;;;;6.37;5.87;;;11.90;99.90;;;;;;4992877;28;20173;-71
2023/05/02 00:05:06;;;;;;;6.33;5.83;;;11.80;99.90;;;;;;4993192;28;20237;-71
2023/05/02 00:07:32;;;;;;;5.93;5.43;;;11.80;99.90;;;;;;4995281;28;20198;-71
2023/05/02 00:10:01;;;;;;;7.10;6.50;;;11.80;99.90;;;;;;4996733;28;20454;-71
2023/05/02 00:12:27;;;;;;;7.47;5.97;;;11.80;99.90;;;;;;4996490;28;20408;-71
2023/05/02 00:14:52;;;;;;;6.10;5.70;;;11.70;99.90;;;;;;4996612;28;20415;-70
2023/05/02 00:17:18;;;;;;;6.23;5.73;;;11.70;99.90;;;;;;4996235;28;20411;-71
2023/05/02 00:19:44;;;;;;;5.27;4.87;;;11.70;99.90;;;;;;4996057;28;20246;-70
2023/05/02 00:22:09;;;;;;;7.43;6.40;;;11.60;99.90;;;;;;4996722;28;20495;-70
2023/05/02 00:24:35;;;;;;;6.97;6.27;;;11.70;99.90;;;;;;4996122;28;20633;-70
2023/05/02 00:27:01;;;;;;;6.50;5.83;;;11.60;99.90;;;;;;4996320;28;20185;-70
2023/05/02 00:29:26;;;;;;;6.70;6.10;;;11.60;99.90;;;;;;4996198;28;20185;-71
2023/05/02 00:31:52;;;;;;;6.80;6.27;;;11.50;99.90;;;;;;4996297;28;20171;-71
2023/05/02 00:34:17;;;;;;;7.20;6.60;;;11.50;99.90;;;;;;4995647;28;20251;-71
2023/05/02 00:36:43;;;;;;;6.17;5.67;;;11.50;99.90;;;;;;4996193;28;20663;-71
2023/05/02 00:39:09;;;;;;;6.33;5.80;;;11.40;99.90;;;;;;4996028;28;20200;-71
2023/05/02 00:41:35;;;;;;;6.93;6.33;;;11.40;99.90;;;;;;4996076;28;20161;-71
2023/05/02 00:44:00;;;;;;;6.53;5.77;;;11.40;99.90;;;;;;4996122;28;20437;-71
2023/05/02 00:46:26;;;;;;;6.67;6.07;;;11.40;99.90;;;;;;4996005;28;20168;-70
2023/05/02 00:48:52;;;;;;;7.67;6.07;;;11.50;99.90;;;;;;5044997;23;20226;-71
2023/05/02 00:51:18;;;;;;;5.37;4.97;;;11.50;99.90;;;;;;5055206;28;20170;-71
2023/05/02 00:53:44;;;;;;;7.50;6.80;;;11.50;99.90;;;;;;5037271;28;20331;-71
2023/05/02 00:56:10;;;;;;;6.30;5.80;;;11.40;99.90;;;;;;5055099;28;20479;-71
2023/05/02 00:58:40;;;;;;;6.50;5.90;;;11.40;99.90;;;;;;5036914;28;20472;-71
2023/05/02 01:01:20;;;;;;;12.60;6.40;;;11.20;99.90;;;;;;5054992;28;20892;-71
2023/05/02 01:04:10;;;;;;;6.43;5.77;;;11.20;99.90;;;;;;5054483;28;20906;-71
2023/05/02 01:06:42;;;;;;;7.17;6.40;;;11.20;99.90;;;;;;5054603;28;20409;-72
2023/05/02 01:09:19;;;;;;;5.80;5.30;;;11.10;99.90;;;;;;5055125;28;20418;-71
2023/05/02 01:12:05;;;;;;;5.77;5.27;;;11.20;99.90;;;;;;5054237;28;20448;-71
2023/05/02 01:14:34;;;;;;;6.83;6.33;;;11.30;99.90;;;;;;5036923;28;20486;-71
2023/05/02 01:17:07;;;;;;;6.03;5.53;;;11.20;99.90;;;;;;5054873;28;20407;-71
2023/05/02 01:19:36;;;;;;;6.27;5.67;;;11.30;99.90;;;;;;5054346;28;20837;-71
2023/05/02 01:22:08;;;;;;;6.13;5.53;;;11.30;99.90;;;;;;5036926;28;20424;-71
2023/05/02 01:24:47;;;;;;;5.77;5.27;;;11.20;99.90;;;;;;5054863;28;20464;-71
2023/05/02 01:27:55;;;;;;;7.07;6.47;;;11.20;99.90;;;;;;5054527;28;20395;-71
2023/05/02 01:30:22;;;;;;;6.90;6.20;;;11.20;99.90;;;;;;5055301;28;20385;-72
2023/05/02 01:32:50;;;;;;;9.10;6.57;;;11.20;99.90;;;;;;5054701;28;20395;-72
2023/05/02 01:35:17;;;;;;;6.70;6.10;;;11.20;99.90;;;;;;5055194;28;20407;-72
2023/05/02 01:37:44;;;;;;;6.33;5.80;;;11.20;99.90;;;;;;5055056;28;20413;-72
2023/05/02 01:40:12;;;;;;;7.60;6.90;;;11.20;99.90;;;;;;5037295;28;20810;-72
2023/05/02 01:42:41;;;;;;;8.33;6.40;;;11.20;99.90;;;;;;5036814;28;20441;-72
2023/05/02 01:45:09;;;;;;;6.03;5.27;;;11.10;99.90;;;;;;5053223;28;20906;-71
2023/05/02 01:47:36;;;;;;;5.97;5.47;;;11.10;99.90;;;;;;5054514;28;20504;-72
2023/05/02 01:50:07;;;;;;;7.20;6.60;;;11.10;99.90;;;;;;5052893;28;20455;-72
2023/05/02 01:52:34;;;;;;;6.60;6.00;;;11.20;99.90;;;;;;5036260;28;20430;-72
2023/05/02 01:55:00;;;;;;;6.60;6.00;;;11.20;99.90;;;;;;5054113;28;20404;-72
2023/05/02 01:57:26;;;;;;;8.00;7.30;;;11.30;99.90;;;;;;5053842;28;20401;-72
2023/05/02 01:59:55;;;;;;;7.57;6.10;;;11.30;99.90;;;;;;5053626;28;20951;-72
2023/05/02 02:02:25;;;;;;;9.00;7.37;;;11.30;99.90;;;;;;5053692;28;20250;-72
2023/05/02 02:04:53;;;;;;;7.17;6.47;;;11.20;99.90;;;;;;5035548;28;20458;-72
2023/05/02 02:07:19;;;;;;;7.03;6.43;;;11.20;99.90;;;;;;5053615;28;20775;-72
2023/05/02 02:09:45;;;;;;;8.37;6.63;;;11.20;99.90;;;;;;5053514;28;20430;-71
2023/05/02 02:12:15;;;;;;;7.13;6.53;;;11.20;99.90;;;;;;5054012;28;20809;-72
2023/05/02 02:14:55;;;;;;;6.73;6.23;;;11.10;99.90;;;;;;5036184;28;20605;-72
2023/05/02 02:17:25;;;;;;;7.47;6.63;;;11.10;99.90;;;;;;5053786;28;20384;-72
2023/05/02 02:19:54;;;;;;;8.47;7.63;;;10.90;99.90;;;;;;5053031;28;20503;-72
2023/05/02 02:22:22;;;;;;;6.43;5.83;;;10.90;99.90;;;;;;5035501;28;20422;-72
2023/05/02 02:24:51;;;;;;;6.60;6.10;;;11.00;99.90;;;;;;5053670;28;20401;-72
2023/05/02 02:27:17;;;;;;;7.60;6.80;;;11.00;99.90;;;;;;5053696;28;20397;-72
2023/05/02 02:29:43;;;;;;;7.10;6.40;;;11.00;99.90;;;;;;5044947;28;20518;-72
2023/05/02 02:32:08;;;;;;;7.30;6.70;;;11.00;99.90;;;;;;5034584;28;20200;-72
2023/05/02 02:34:34;;;;;;;8.07;6.60;;;11.00;99.90;;;;;;5052916;28;20548;-72
2023/05/02 02:37:04;;;;;;;6.83;6.27;;;10.90;99.90;;;;;;5035342;28;20641;-71
2023/05/02 02:39:38;;;;;;;6.30;5.80;;;10.90;99.90;;;;;;5053086;28;20542;-72
2023/05/02 02:42:21;;;;;;;6.43;5.83;;;10.80;99.90;;;;;;5053386;28;20415;-72
2023/05/02 02:44:59;;;;;;;8.53;7.03;;;10.90;99.90;;;;;;5053349;28;20406;-72
2023/05/02 02:47:43;;;;;;;9.17;8.37;;;10.80;99.90;;;;;;5053585;28;20428;-72
2023/05/02 02:50:28;;;;;;;7.63;7.03;;;10.80;99.90;;;;;;5053331;28;20404;-71
2023/05/02 02:53:11;;;;;;;8.20;7.50;;;10.70;99.90;;;;;;5053056;28;20493;-72
2023/05/02 02:55:46;;;;;;;7.57;6.93;;;10.80;99.90;;;;;;5053030;28;20467;-72
2023/05/02 02:58:16;;;;;;;6.90;6.30;;;10.70;99.90;;;;;;5052909;28;20446;-71
2023/05/02 03:00:42;;;;;;;7.80;7.10;;;10.70;99.90;;;;;;5052818;28;20890;-71
2023/05/02 03:03:09;;;;;;;8.47;7.40;;;10.80;99.90;;;;;;5052660;28;20435;-69
2023/05/02 03:05:34;;;;;;;7.40;6.53;;;10.80;99.90;;;;;;5035012;28;20448;-71
2023/05/02 03:08:00;;;;;;;6.47;5.87;;;10.90;99.90;;;;;;5052817;28;20955;-72
2023/05/02 03:10:26;;;;;;;7.10;6.50;;;10.90;99.90;;;;;;5052832;28;20175;-71
2023/05/02 03:12:54;;;;;;;9.97;7.73;;;10.80;99.90;;;;;;5053132;28;20178;-71
2023/05/02 03:15:50;;;;;;;7.40;5.63;;;10.80;99.90;;;;;;5052863;28;20644;-72
2023/05/02 03:18:17;;;;;;;7.60;6.03;;;10.90;99.90;;;;;;5052389;28;20839;-71
2023/05/02 03:20:42;;;;;;;7.00;6.30;;;10.90;99.90;;;;;;5052737;28;20443;-72
2023/05/02 03:23:08;;;;;;;7.47;6.83;;;11.00;99.90;;;;;;5035954;28;20912;-72
2023/05/02 03:25:34;;;;;;;8.50;6.63;;;11.00;99.90;;;;;;5035107;28;20592;-72
2023/05/02 03:27:59;;;;;;;6.50;6.00;;;11.00;99.90;;;;;;5052754;28;20202;-72
2023/05/02 03:30:25;;;;;;;7.17;6.57;;;11.10;99.90;;;;;;5034963;28;20181;-72
2023/05/02 03:32:51;;;;;;;7.93;7.23;;;11.10;99.90;;;;;;5035174;28;20192;-72
2023/05/02 03:35:17;;;;;;;7.43;6.67;;;11.10;99.90;;;;;;5052808;28;20170;-72
2023/05/02 03:37:43;;;;;;;6.07;5.47;;;11.10;99.90;;;;;;5052688;28;20291;-72
2023/05/02 03:40:08;;;;;;;7.57;6.97;;;11.20;99.90;;;;;;5033428;28;20456;-72
2023/05/02 03:42:39;;;;;;;7.70;7.00;;;11.20;99.90;;;;;;5055200;28;20205;-72
2023/05/02 03:45:06;;;;;;;7.33;6.63;;;11.30;99.90;;;;;;5056349;28;20576;-72
2023/05/02 03:47:32;;;;;;;7.53;6.83;;;11.40;99.90;;;;;;5038935;28;20420;-72
2023/05/02 03:49:58;;;;;;;7.87;7.13;;;11.40;99.90;;;;;;5056355;28;20445;-71
2023/05/02 03:52:24;;;;;;;8.47;7.00;;;11.40;99.90;;;;;;5059027;28;20174;-72
2023/05/02 03:54:49;;;;;;;7.93;6.80;;;11.50;99.90;;;;;;5060142;28;20415;-72
2023/05/02 03:57:15;;;;;;;6.10;5.70;;;11.60;99.90;;;;;;5056086;28;20418;-72
2023/05/02 03:59:41;;;;;;;7.03;6.53;;;11.60;99.90;;;;;;5056221;28;20676;-72
2023/05/02 04:02:07;;;;;;;5.90;5.40;;;11.60;99.90;;;;;;5056177;28;20193;-70
2023/05/02 04:04:33;;;;;;;6.07;5.57;;;11.70;99.90;;;;;;5055985;28;20405;-72
2023/05/02 04:06:59;;;;;;;7.07;6.47;;;11.80;99.90;;;;;;5056311;28;20168;-72
2023/05/02 04:09:24;;;;;;;7.23;6.50;;;11.90;99.90;;;;;;5055788;28;20201;-72
2023/05/02 04:11:51;;;;;;;7.53;6.73;;;11.90;99.90;;;;;;5056086;28;20178;-72
2023/05/02 04:14:17;;;;;;;7.80;7.10;;;11.90;99.90;;;;;;5056341;28;20178;-72
2023/05/02 04:16:47;;;;;;;6.13;5.63;;;11.90;99.90;;;;;;5056078;28;20503;-72
2023/05/02 04:19:13;;;;;;;6.53;5.93;;;11.90;99.90;;;;;;5055934;28;20477;-72
2023/05/02 04:21:38;;;;;;;7.53;6.90;;;12.00;99.90;;;;;;5056247;28;20768;-72
2023/05/02 04:24:04;;;;;;;8.40;6.60;;;12.00;99.90;;;;;;5054301;28;20546;-71
2023/05/02 04:26:30;;;;;;;7.33;6.50;;;12.00;99.90;;;;;;5054539;28;20299;-72
2023/05/02 04:28:55;;;;;;;6.70;6.10;;;12.00;99.90;;;;;;5054891;28;20185;-71
2023/05/02 04:31:21;;;;;;;8.10;7.30;;;12.10;99.90;;;;;;5055765;28;20165;-72
2023/05/02 04:33:47;;;;;;;7.30;6.70;;;12.00;99.90;;;;;;5044829;28;20175;-72
2023/05/02 04:36:13;;;;;;;6.57;6.07;;;12.00;99.90;;;;;;5035577;28;20514;-71
2023/05/02 04:38:38;;;;;;;7.60;6.90;;;12.20;99.90;;;;;;5017574;28;20437;-72
2023/05/02 04:41:04;;;;;;;6.97;6.40;;;12.30;99.90;;;;;;5053689;28;20211;-72
2023/05/02 04:43:30;;;;;;;6.20;5.70;;;12.30;99.90;;;;;;5055252;28;20259;-72
2023/05/02 04:45:57;;;;;;;7.13;6.53;;;12.30;99.90;;;;;;5037291;28;20403;-72
2023/05/02 04:48:24;;;;;;;7.23;5.83;;;12.40;99.90;;;;;;5055096;28;20624;-71
2023/05/02 04:50:52;;;;;;;8.30;7.47;;;12.40;99.90;;;;;;5054839;28;20795;-72
2023/05/02 04:53:18;;;;;;;9.20;7.87;;;12.40;99.90;;;;;;5054938;28;20768;-72
2023/05/02 04:55:43;;;;;;;7.43;6.83;;;12.40;99.90;;;;;;5054884;28;20476;-72
2023/05/02 04:58:09;;;;;;;6.80;6.20;;;12.40;99.90;;;;;;5055012;28;20260;-71
2023/05/02 05:00:34;;;;;;;7.37;6.60;;;12.40;99.90;;;;;;5055159;28;20230;-72
2023/05/02 05:03:00;;;;;;;8.17;7.47;;;12.50;99.90;;;;;;5055758;28;20587;-72
2023/05/02 05:05:26;;;;;;;8.87;7.97;;;12.50;99.90;;;;;;5054949;28;20174;-71
2023/05/02 05:07:51;;;;;;;8.40;7.60;;;12.40;99.90;;;;;;5055221;28;20204;-72
2023/05/02 05:10:17;;;;;;;10.60;8.23;;;12.40;99.90;;;;;;5036733;28;20182;-73
2023/05/02 05:12:43;;;;;;;7.93;7.33;;;12.40;99.90;;;;;;5054955;28;20170;-72
2023/05/02 05:15:09;;;;;;;7.80;7.10;;;12.50;99.90;;;;;;5054704;28;20184;-71
2023/05/02 05:17:35;;;;;;;7.23;6.53;;;12.50;99.90;;;;;;5054776;28;20178;-72
2023/05/02 05:20:00;;;;;;;7.00;6.30;;;12.70;99.90;;;;;;5036323;28;20201;-72
2023/05/02 05:22:26;;;;;;;7.83;7.10;;;12.80;99.90;;;;;;5036589;28;20436;-72
2023/05/02 05:24:55;;;;;;;7.40;6.70;;;13.00;99.90;;;;;;5054454;28;20641;-72
2023/05/02 05:27:21;;;;;;;6.87;6.27;;;13.00;99.90;;;;;;5054473;28;20171;-72
2023/05/02 05:29:47;;;;;;;9.03;8.30;;;13.10;99.90;;;;;;5054178;28;20973;-72
2023/05/02 05:32:12;;;;;;;10.10;9.30;;;13.20;99.90;;;;;;5054448;28;20169;-71
2023/05/02 05:34:38;;;;;;;9.40;8.60;;;13.20;99.90;;;;;;5036078;28;20420;-71
2023/05/02 05:37:03;;;;;;;7.43;6.83;;;13.00;99.90;;;;;;5036472;28;20692;-72
2023/05/02 05:39:29;;;;;;;9.00;8.10;;;13.00;99.90;;;;;;5053026;28;20216;-72
2023/05/02 05:41:56;;;;;;;7.90;7.30;;;13.10;99.90;;;;;;5036078;28;20288;-72
2023/05/02 05:44:21;;;;;;;9.80;8.90;;;13.30;99.90;;;;;;5052558;28;20221;-72
2023/05/02 05:46:47;;;;;;;8.07;7.37;;;13.50;99.90;;;;;;5053897;28;20825;-70
2023/05/02 05:49:15;;;;;;;10.00;9.17;;;13.60;99.90;;;;;;5039859;28;20773;-72
2023/05/02 05:51:40;;;;;;;10.93;9.93;;;13.60;99.90;;;;;;5033881;28;20186;-70
2023/05/02 05:54:06;;;;;;;9.03;8.23;;;13.40;99.90;;;;;;5033756;28;20443;-71
2023/05/02 05:56:32;;;;;;;8.93;8.13;;;13.60;99.90;;;;;;5033851;28;20181;-72
2023/05/02 05:58:57;;;;;;;8.90;8.20;;;13.50;99.90;;;;;;5033650;28;20193;-70
2023/05/02 06:01:23;;;;;;;9.60;8.70;;;13.70;99.90;;;;;;5034135;28;20585;-72
2023/05/02 06:03:48;;;;;;;10.40;9.50;;;13.60;99.90;;;;;;5033248;28;20175;-72
2023/05/02 06:06:14;;;;;;;11.47;10.30;;;13.40;99.90;;;;;;5033772;28;20624;-72
2023/05/02 06:08:40;;;;;;;10.27;9.37;;;13.20;99.90;;;;;;5046997;28;20199;-73
2023/05/02 06:11:10;;;;;;;12.40;11.30;;;13.10;99.90;;;;;;5052992;28;20265;-73
2023/05/02 06:13:37;;;;;;;11.37;10.40;;;13.10;99.90;;;;;;5053548;28;20164;-72
2023/05/02 06:16:02;;;;;;;12.30;11.20;;;13.10;99.90;;;;;;5053452;28;20413;-71
2023/05/02 06:18:28;;;;;;;13.20;12.00;;;13.10;99.90;;;;;;5053631;28;20523;-71
2023/05/02 06:20:53;;;;;;;13.83;11.97;;;12.90;99.90;;;;;;5053561;28;20197;-73
2023/05/02 06:23:19;;;;;;;13.40;12.30;;;12.90;99.90;;;;;;5054022;28;20593;-72
2023/05/02 06:25:44;;;;;;;12.97;11.77;;;12.90;99.90;;;;;;5051356;28;20163;-73
2023/05/02 06:28:10;;;;;;;12.70;11.40;;;13.20;99.90;;;;;;5038646;28;20189;-73
2023/05/02 06:30:36;;;;;;;13.73;12.33;;;13.30;99.90;;;;;;5040252;28;20194;-73
2023/05/02 06:33:04;;;;;;;15.10;11.33;;;13.20;99.90;;;;;;5040367;28;20189;-73
2023/05/02 06:35:29;;;;;;;14.03;12.57;;;13.30;99.90;;;;;;5039666;28;20268;-72
2023/05/02 06:37:55;;;;;;;14.70;12.60;;;13.40;99.90;;;;;;5041768;28;20924;-73
2023/05/02 06:40:20;;;;;;;13.33;12.13;;;13.50;99.90;;;;;;5051487;28;20693;-73
2023/05/02 06:42:46;;;;;;;13.50;12.10;;;13.80;99.90;;;;;;5058426;28;20660;-73
2023/05/02 06:45:11;;;;;;;15.27;13.80;;;13.90;99.90;;;;;;5053588;28;20169;-73
2023/05/02 06:47:37;;;;;;;13.60;12.33;;;13.80;99.90;;;;;;5053552;28;20173;-73
2023/05/02 06:50:02;;;;;;;16.87;15.37;;;13.70;99.90;;;;;;5049411;23;20312;-68
2023/05/02 06:52:28;;;;;;;14.97;13.67;;;13.90;99.90;;;;;;5032927;28;20169;-69
2023/05/02 06:54:54;;;;;;;16.40;14.90;;;14.20;99.90;;;;;;5032659;28;20160;-68
2023/05/02 06:57:19;;;;;;;17.17;15.17;;;14.10;99.90;;;;;;5033203;28;20177;-68
2023/05/02 06:59:45;;;;;;;17.10;15.57;;;14.20;99.90;;;;;;5032828;28;20198;-68
2023/05/02 07:02:10;;;;;;;19.50;17.63;;;14.10;99.90;;;;;;5032850;28;20164;-68
2023/05/02 07:04:36;;;;;;;17.57;15.90;;;13.90;99.90;;;;;;5033230;28;20218;-69
2023/05/02 07:07:02;;;;;;;17.60;16.00;;;13.70;99.90;;;;;;5032813;28;20163;-68
2023/05/02 07:09:28;;;;;;;18.63;16.93;;;13.60;99.90;;;;;;5032778;28;20354;-69
2023/05/02 07:11:53;;;;;;;19.23;17.53;;;13.60;99.90;;;;;;5032641;28;20948;-69
2023/05/02 07:14:19;;;;;;;19.37;17.67;;;13.50;99.90;;;;;;5032759;28;20749;-70
2023/05/02 07:16:45;;;;;;;18.70;17.00;;;13.50;99.90;;;;;;5035618;28;20168;-70
2023/05/02 07:19:10;;;;;;;18.83;17.03;;;13.50;99.90;;;;;;5036707;28;20204;-69
2023/05/02 07:21:36;;;;;;;20.23;18.13;;;13.60;99.90;;;;;;5036307;28;20181;-67
2023/05/02 07:24:02;;;;;;;18.90;17.17;;;13.50;99.90;;;;;;5036671;28;20300;-70
2023/05/02 07:26:27;;;;;;;20.50;18.40;;;13.20;99.90;;;;;;5036499;28;20204;-71
2023/05/02 07:28:53;;;;;;;21.80;19.70;;;13.40;99.90;;;;;;5036874;28;20281;-69
2023/05/02 07:31:18;;;;;;;20.50;18.60;;;13.50;99.90;;;;;;5036511;28;20186;-69
2023/05/02 07:33:44;;;;;;;22.73;20.43;;;13.50;99.90;;;;;;5036644;28;20171;-69
2023/05/02 07:36:10;;;;;;;23.70;21.50;;;13.60;99.90;;;;;;5036707;28;20176;-68
2023/05/02 07:38:35;;;;;;;21.93;19.77;;;13.60;99.90;;;;;;5036265;28;20564;-69
2023/05/02 07:41:01;;;;;;;23.27;21.03;;;13.70;99.90;;;;;;5035016;28;20198;-69
2023/05/02 07:43:26;;;;;;;22.10;19.70;;;13.70;99.90;;;;;;5036411;28;20166;-68
2023/05/02 07:45:52;;;;;;;24.00;21.63;;;13.70;99.90;;;;;;5037009;28;20169;-69
2023/05/02 07:48:19;;;;;;;24.33;21.97;;;13.90;99.90;;;;;;5036055;28;20167;-70
2023/05/02 07:50:44;;;;;;;22.67;20.57;;;14.00;99.90;;;;;;5036318;28;20247;-69
2023/05/02 07:53:10;;;;;;;22.03;19.93;;;14.00;99.90;;;;;;5034714;28;20434;-69
2023/05/02 07:55:35;;;;;;;26.73;20.37;;;14.10;99.90;;;;;;5036029;28;20254;-69
2023/05/02 07:58:02;;;;;;;23.43;21.23;;;14.00;99.90;;;;;;5036121;28;20178;-69
2023/05/02 08:00:29;;;;;;;24.00;21.63;;;14.10;99.90;;;;;;5036213;28;20192;-68
2023/05/02 08:02:54;;;;;;;21.50;19.40;;;14.00;99.90;;;;;;5035378;28;20418;-69
2023/05/02 08:05:20;;;;;;;24.57;22.27;;;14.20;99.90;;;;;;5036236;28;20414;-69
2023/05/02 08:07:46;;;;;;;24.27;21.87;;;14.30;99.90;;;;;;5035889;28;20165;-69
2023/05/02 08:10:11;;;;;;;25.07;22.67;;;14.00;99.90;;;;;;5035168;28;20203;-69
2023/05/02 08:12:39;;;;;;;23.07;20.87;;;13.70;99.90;;;;;;5035993;28;20182;-69
2023/05/02 08:15:06;;;;;;;26.00;23.37;;;13.60;99.90;;;;;;5035611;28;20658;-69
2023/05/02 08:17:32;;;;;;;24.73;22.40;;;13.80;99.90;;;;;;5035692;28;20495;-69
2023/05/02 08:19:57;;;;;;;25.53;23.00;;;13.80;99.90;;;;;;5035604;28;20545;-69
2023/05/02 08:22:23;;;;;;;26.20;23.70;;;14.00;99.90;;;;;;5033721;28;20173;-69
2023/05/02 08:24:48;;;;;;;26.90;24.30;;;14.10;99.90;;;;;;5017344;28;20647;-69
2023/05/02 08:27:14;;;;;;;28.63;25.77;;;14.10;99.90;;;;;;5014873;28;20182;-69
2023/05/02 08:29:39;;;;;;;28.63;24.13;;;14.20;99.90;;;;;;5015662;28;20230;-69
2023/05/02 08:32:05;;;;;;;27.13;24.43;;;14.20;99.90;;;;;;5015692;28;20171;-69
2023/05/02 08:34:32;;;;;;;27.10;24.60;;;14.30;99.90;;;;;;5034032;28;20184;-69
2023/05/02 08:36:58;;;;;;;29.60;26.67;;;14.40;99.90;;;;;;5035353;28;20647;-69
2023/05/02 08:39:23;;;;;;;25.63;23.20;;;14.60;99.90;;;;;;5034816;28;20499;-68
2023/05/02 08:41:49;;;;;;;25.83;23.30;;;14.80;99.90;;;;;;5035119;28;20167;-69
2023/05/02 08:44:15;;;;;;;26.10;23.60;;;14.80;99.90;;;;;;5035273;28;20167;-68
2023/05/02 08:46:42;;;;;;;25.20;22.60;;;14.80;99.90;;;;;;5035032;28;20173;-69
2023/05/02 08:49:10;;;;;;;27.17;24.57;;;14.90;99.90;;;;;;5017152;28;20211;-69
2023/05/02 08:51:36;;;;;;;25.33;22.83;;;14.90;99.90;;;;;;5035080;28;20813;-69
2023/05/02 08:54:02;;;;;;;26.27;23.77;;;14.70;99.90;;;;;;5034772;28;20421;-69
2023/05/02 08:56:28;;;;;;;24.97;22.60;;;15.10;99.90;;;;;;5035013;28;20402;-69
2023/05/02 08:58:54;;;;;;;24.33;21.80;;;15.40;99.90;;;;;;5034814;28;20432;-69
2023/05/02 09:01:22;;;;;;;26.80;24.20;;;15.60;99.90;;;;;;5034956;28;20198;-69
2023/05/02 09:03:48;;;;;;;25.80;23.30;;;15.50;99.90;;;;;;5034797;28;20206;-69
2023/05/02 09:06:19;;;;;;;26.87;23.53;;;15.70;99.90;;;;;;5034937;28;20402;-69
2023/05/02 09:08:51;;;;;;;25.10;22.47;;;15.90;99.90;;;;;;5034439;28;20505;-69
2023/05/02 09:11:17;;;;;;;22.83;20.70;;;15.70;99.90;;;;;;5034428;28;20440;-69
2023/05/02 09:13:45;;;;;;;24.00;21.70;;;15.70;99.90;;;;;;5034655;28;20410;-69
2023/05/02 09:16:11;;;;;;;24.80;22.43;;;15.80;99.90;;;;;;5034660;28;20437;-69
2023/05/02 09:18:44;;;;;;;24.67;22.17;;;15.70;99.90;;;;;;5034940;28;20418;-69
2023/05/02 09:21:18;;;;;;;23.67;21.40;;;16.00;99.90;;;;;;5035233;28;20451;-68
2023/05/02 09:23:45;;;;;;;26.07;23.47;;;16.30;99.90;;;;;;5016644;28;20452;-69
2023/05/02 09:26:18;;;;;;;26.57;23.87;;;16.50;99.90;;;;;;5034125;28;20412;-69
2023/05/02 09:28:50;;;;;;;23.13;20.87;;;16.50;99.90;;;;;;5034675;28;20808;-69
2023/05/02 09:31:18;;;;;;;21.53;19.23;;;16.00;99.90;;;;;;5034449;28;20790;-69
2023/05/02 09:33:44;;;;;;;22.37;20.10;;;15.70;99.90;;;;;;5034305;28;20939;-69
2023/05/02 09:36:15;;;;;;;23.97;21.53;;;16.10;99.90;;;;;;5034302;28;20410;-69
2023/05/02 09:38:42;;;;;;;23.10;21.07;;;16.40;99.90;;;;;;5033462;28;20956;-68
2023/05/02 09:41:09;;;;;;;24.70;22.10;;;16.30;99.90;;;;;;5032450;28;20446;-68
2023/05/02 09:43:35;;;;;;;22.33;20.23;;;16.70;99.90;;;;;;5034379;28;20905;-71
2023/05/02 09:46:08;;;;;;;21.83;19.83;;;16.10;99.90;;;;;;5034628;28;20409;-69
2023/05/02 09:48:59;;;;;;;22.13;19.90;;;15.90;99.90;;;;;;5014436;28;20547;-70
2023/05/02 09:51:25;;;;;;;23.87;21.67;;;16.30;99.90;;;;;;5034088;28;20390;-69
2023/05/02 09:53:51;;;;;;;23.83;21.37;;;16.90;99.90;;;;;;5033970;28;20398;-69
2023/05/02 09:56:17;;;;;;;24.73;22.40;;;16.90;99.90;;;;;;5033507;28;20156;-69
2023/05/02 09:58:43;;;;;;;25.67;23.07;;;17.10;99.90;;;;;;5033848;28;20872;-69
2023/05/02 10:01:15;;;;;;;24.53;22.23;;;16.80;99.90;;;;;;5016021;28;20239;-68
2023/05/02 10:03:41;;;;;;;23.57;21.37;;;16.60;99.90;;;;;;5034293;28;20452;-69
2023/05/02 10:06:08;;;;;;;23.47;21.20;;;16.40;99.90;;;;;;5033871;28;20808;-69
2023/05/02 10:08:34;;;;;;;22.60;20.50;;;16.90;99.90;;;;;;5033790;28;20464;-69
2023/05/02 10:11:06;;;;;;;23.37;20.90;;;17.60;99.90;;;;;;5032634;28;20468;-70
2023/05/02 10:13:33;;;;;;;22.70;20.60;;;17.80;99.90;;;;;;5033622;28;20374;-69
2023/05/02 10:16:01;;;;;;;25.00;22.57;;;17.40;99.90;;;;;;5033837;28;20436;-69
2023/05/02 10:18:32;;;;;;;25.40;22.87;;;16.80;99.90;;;;;;5033328;28;20483;-69
2023/05/02 10:21:07;;;;;;;23.83;21.70;;;16.60;99.90;;;;;;5030305;28;20434;-69
2023/05/02 10:23:34;;;;;;;23.27;20.87;;;16.20;99.90;;;;;;5033821;28;20772;-69
2023/05/02 10:26:00;;;;;;;25.70;23.10;;;16.30;99.90;;;;;;5032941;28;20512;-69
2023/05/02 10:28:26;;;;;;;24.60;22.23;;;16.90;99.90;;;;;;5033200;28;20422;-68
2023/05/02 10:30:52;;;;;;;24.43;22.00;;;17.10;99.90;;;;;;5033229;28;20410;-69
2023/05/02 10:33:20;;;;;;;23.87;21.73;;;17.10;99.90;;;;;;5033352;28;20421;-69
2023/05/02 10:35:46;;;;;;;25.17;22.50;;;17.10;99.90;;;;;;5033676;28;20544;-69
2023/05/02 10:38:20;;;;;;;25.10;22.80;;;17.20;99.90;;;;;;5034032;28;20885;-69
2023/05/02 10:40:55;;;;;;;24.07;21.70;;;17.40;99.90;;;;;;5032926;28;20230;-69
2023/05/02 10:43:23;;;;;;;19.93;18.13;;;17.90;99.90;;;;;;5015534;28;20410;-69
2023/05/02 10:45:49;;;;;;;25.07;22.80;;;18.50;99.90;;;;;;5033188;28;20402;-69
2023/05/02 10:48:19;;;;;;;22.30;20.20;;;18.80;99.90;;;;;;5032897;28;20458;-69
2023/05/02 10:50:51;;;;;;;22.10;19.97;;;19.20;99.90;;;;;;5033044;28;20408;-69
2023/05/02 10:53:31;;;;;;;22.70;20.60;;;19.20;99.90;;;;;;5032941;28;20405;-69
2023/05/02 10:56:13;;;;;;;17.80;16.00;;;20.10;99.90;;;;;;5033162;28;20866;-68
2023/05/02 10:58:39;;;;;;;17.83;16.07;;;19.90;99.90;;;;;;5015167;28;20480;-68
2023/05/02 11:01:25;;;;;;;17.47;15.87;;;19.20;99.90;;;;;;5032910;28;20946;-68
2023/05/02 11:04:07;;;;;;;16.80;15.10;;;19.00;99.90;;;;;;5033096;28;20410;-68
2023/05/02 11:06:59;;;;;;;18.23;16.53;;;19.10;99.90;;;;;;5034081;28;20721;-68
2023/05/02 11:09:28;;;;;;;18.27;16.57;;;19.10;99.90;;;;;;5032795;28;20434;-69
2023/05/02 11:11:56;;;;;;;15.50;14.10;;;19.90;99.90;;;;;;5032595;28;20425;-69
2023/05/02 11:14:25;;;;;;;15.77;14.43;;;21.00;99.90;;;;;;5026841;28;20411;-70
2023/05/02 11:16:57;;;;;;;15.57;14.23;;;22.50;97.00;;;;;;5033042;28;20464;-69
2023/05/02 11:19:23;;;;;;;14.83;13.50;;;24.40;94.90;;;;;;5032535;28;20453;-69
2023/05/02 11:21:49;;;;;;;15.53;14.03;;;24.90;91.70;;;;;;5032798;28;20422;-69
2023/05/02 11:24:38;;;;;;;14.33;13.03;;;23.70;90.00;;;;;;5032904;28;20410;-69
2023/05/02 11:27:28;;;;;;;15.13;13.83;;;22.80;92.30;;;;;;5032857;28;20414;-69
2023/05/02 11:30:01;;;;;;;18.00;16.37;;;21.80;93.80;;;;;;5033139;28;20796;-69
2023/05/02 11:32:48;;;;;;;16.77;15.20;;;21.30;94.30;;;;;;5032714;28;20406;-69
2023/05/02 11:35:19;;;;;;;16.53;14.93;;;21.50;95.00;;;;;;5014785;28;20521;-69
2023/05/02 11:38:02;;;;;;;19.77;17.80;;;22.80;93.90;;;;;;5032523;28;20806;-69
2023/05/02 11:40:28;;;;;;;16.07;14.67;;;23.10;92.30;;;;;;5032745;28;20932;-69
2023/05/02 11:42:55;;;;;;;15.20;13.80;;;22.70;91.80;;;;;;5032097;28;20410;-69
2023/05/02 11:45:22;;;;;;;18.57;16.87;;;23.40;90.80;;;;;;5032498;28;20401;-69
2023/05/02 11:47:49;;;;;;;17.97;16.40;;;24.10;90.40;;;;;;5032860;28;20808;-70
2023/05/02 11:50:16;;;;;;;14.43;13.13;;;24.10;90.10;;;;;;5014109;28;20453;-69
2023/05/02 11:52:44;;;;;;;18.70;17.10;;;25.50;90.00;;;;;;5031629;28;20469;-69
2023/05/02 11:55:11;;;;;;;17.47;15.80;;;24.60;88.60;;;;;;5032425;28;20929;-69
2023/05/02 11:57:37;;;;;;;18.30;16.60;;;22.80;91.10;;;;;;5032542;28;20416;-69
2023/05/02 12:00:04;;;;;;;18.30;16.57;;;21.10;93.50;;;;;;5032758;28;20976;-69
2023/05/02 12:02:43;;;;;;;18.30;16.60;;;20.80;95.10;;;;;;5033167;28;20827;-69
2023/05/02 12:05:11;;;;;;;19.83;17.93;;;21.40;94.10;;;;;;5036272;28;20393;-68
2023/05/02 12:07:40;;;;;;;21.67;19.63;;;20.50;94.10;;;;;;5035865;28;20437;-69
2023/05/02 12:10:08;;;;;;;20.87;18.93;;;20.50;94.50;;;;;;5035912;28;20426;-70
2023/05/02 12:12:34;;;;;;;21.47;19.57;;;21.00;93.90;;;;;;5035654;28;20414;-69
2023/05/02 12:15:07;;;;;;;21.40;19.30;;;21.80;92.60;;;;;;5035503;28;20406;-69
2023/05/02 12:17:36;;;;;;;19.53;17.67;;;22.70;92.10;;;;;;5035715;28;20422;-69
2023/05/02 12:20:06;;;;;;;19.43;17.57;;;23.40;90.20;;;;;;5035606;28;20457;-70
2023/05/02 12:22:32;;;;;;;17.90;16.23;;;23.60;88.90;;;;;;5035583;28;20449;-69
2023/05/02 12:24:58;;;;;;;19.33;17.63;;;23.40;88.80;;;;;;5017828;28;20442;-70
2023/05/02 12:27:24;;;;;;;20.87;18.93;;;23.50;87.30;;;;;;5035375;28;20500;-70
2023/05/02 12:29:50;;;;;;;19.77;17.80;;;22.90;90.10;;;;;;5025532;28;20517;-70
2023/05/02 12:32:30;;;;;;;19.37;17.57;;;21.90;91.60;;;;;;5015761;28;20176;-70
2023/05/02 12:34:56;;;;;;;22.90;20.60;;;22.00;91.90;;;;;;5015765;28;20391;-70
2023/05/02 12:37:23;;;;;;;25.80;23.40;;;21.10;93.20;;;;;;5015421;28;20407;-70
2023/05/02 12:39:49;;;;;;;23.67;21.47;;;20.40;95.10;;;;;;5021736;28;20711;-70